Time,TemperatureF,DewpointF,PressureIn,WindDirection,WindDirectionDegrees,WindSpeedMPH,WindSpeedGustMPH,Humidity,HourlyPrecipIn,Conditions,Clouds,dailyrainin,SoftwareType,DateUTC
2013-04-09 00:00:00,64.4,49.2,30.07,ESE,113,0.9,1.3,58,0.00,,,0.00,WUHU216HW,2013-04-09 04:00:00,
2013-04-09 00:05:00,64.4,49.2,30.08,ESE,113,1.1,1.3,58,0.00,,,0.00,WUHU216HW,2013-04-09 04:05:00,
2013-04-09 00:10:00,64.4,49.8,30.08,East,90,0.4,1.8,59,0.00,,,0.00,WUHU216HW,2013-04-09 04:10:00,
2013-04-09 00:15:00,64.4,49.2,30.08,East,90,0.0,1.8,58,0.00,,,0.00,WUHU216HW,2013-04-09 04:15:00,
2013-04-09 00:20:00,64.3,49.6,30.08,East,90,0.0,0.4,59,0.00,,,0.00,WUHU216HW,2013-04-09 04:20:00,
2013-04-09 00:25:00,64.1,49.4,30.08,East,90,0.0,0.0,59,0.00,,,0.00,WUHU216HW,2013-04-09 04:25:00,
2013-04-09 00:30:00,64.1,49.4,30.08,East,90,0.0,0.0,59,0.00,,,0.00,WUHU216HW,2013-04-09 04:30:00,
2013-04-09 00:35:00,63.9,49.2,30.08,ENE,68,1.1,1.1,59,0.00,,,0.00,WUHU216HW,2013-04-09 04:35:00,
2013-04-09 00:40:00,63.9,49.2,30.08,NE,45,0.0,1.1,59,0.00,,,0.00,WUHU216HW,2013-04-09 04:40:00,
2013-04-09 00:45:00,63.9,49.2,30.08,NE,45,0.0,1.1,59,0.00,,,0.00,WUHU216HW,2013-04-09 04:45:00,
2013-04-09 00:50:00,64.1,49.4,30.09,NNW,338,0.0,0.2,59,0.00,,,0.00,WUHU216HW,2013-04-09 04:50:00,
2013-04-09 00:55:00,64.1,49.4,30.09,NNW,338,0.0,0.2,59,0.00,,,0.00,WUHU216HW,2013-04-09 04:55:00,
2013-04-09 01:00:00,64.1,49.4,30.08,WNW,293,0.0,1.6,59,0.00,,,0.00,WUHU216HW,2013-04-09 05:00:00,
2013-04-09 01:05:00,63.9,49.2,30.09,WNW,293,0.2,1.6,59,0.00,,,0.00,WUHU216HW,2013-04-09 05:05:00,
2013-04-09 01:10:00,63.9,49.2,30.09,WNW,293,0.0,1.1,59,0.00,,,0.00,WUHU216HW,2013-04-09 05:10:00,
2013-04-09 01:15:00,63.9,49.2,30.09,WNW,293,0.0,0.2,59,0.00,,,0.00,WUHU216HW,2013-04-09 05:15:00,
2013-04-09 01:20:00,63.9,49.2,30.09,WNW,293,0.0,0.2,59,0.00,,,0.00,WUHU216HW,2013-04-09 05:20:00,
2013-04-09 01:25:00,63.7,49.1,30.09,WNW,293,0.0,0.0,59,0.00,,,0.00,WUHU216HW,2013-04-09 05:25:00,
2013-04-09 01:30:00,63.7,49.1,30.09,WNW,293,0.0,0.0,59,0.00,,,0.00,WUHU216HW,2013-04-09 05:30:00,
2013-04-09 01:35:00,63.7,49.6,30.09,SE,135,1.1,1.6,60,0.00,,,0.00,WUHU216HW,2013-04-09 05:35:00,
2013-04-09 01:40:00,63.4,49.2,30.10,SE,135,0.4,1.6,60,0.00,,,0.00,WUHU216HW,2013-04-09 05:40:00,
2013-04-09 01:45:00,63.4,49.2,30.10,SE,135,0.0,1.3,60,0.00,,,0.00,WUHU216HW,2013-04-09 05:45:00,
2013-04-09 01:50:00,63.2,49.1,30.10,SE,135,0.0,0.4,60,0.00,,,0.00,WUHU216HW,2013-04-09 05:50:00,
2013-04-09 01:55:00,63.2,49.5,30.10,SE,135,0.0,0.0,61,0.00,,,0.00,WUHU216HW,2013-04-09 05:55:00,
2013-04-09 02:00:00,63.0,49.3,30.10,ESE,113,0.0,0.0,61,0.00,,,0.00,WUHU216HW,2013-04-09 06:00:00,
2013-04-09 02:05:00,63.0,49.3,30.10,ESE,113,0.2,0.2,61,0.00,,,0.00,WUHU216HW,2013-04-09 06:05:00,
2013-04-09 02:10:00,63.0,49.3,30.10,SE,135,1.3,1.3,61,0.00,,,0.00,WUHU216HW,2013-04-09 06:10:00,
2013-04-09 02:15:00,62.8,49.6,30.10,ESE,113,1.3,1.8,62,0.00,,,0.00,WUHU216HW,2013-04-09 06:15:00,
2013-04-09 02:20:00,62.6,49.4,30.10,ESE,113,1.6,1.8,62,0.00,,,0.00,WUHU216HW,2013-04-09 06:20:00,
2013-04-09 02:25:00,62.5,49.2,30.10,ESE,113,1.3,1.8,62,0.00,,,0.00,WUHU216HW,2013-04-09 06:25:00,
2013-04-09 02:30:00,62.3,49.2,30.09,East,90,2.5,2.5,62,0.00,,,0.00,WUHU216HW,2013-04-09 06:30:00,
2013-04-09 02:35:00,62.1,49.0,30.10,East,90,2.5,2.5,62,0.00,,,0.00,WUHU216HW,2013-04-09 06:35:00,
2013-04-09 02:40:00,61.7,49.1,30.09,East,90,1.8,3.1,63,0.00,,,0.00,WUHU216HW,2013-04-09 06:40:00,
2013-04-09 02:45:00,61.6,48.9,30.09,ESE,113,1.3,3.1,63,0.00,,,0.00,WUHU216HW,2013-04-09 06:45:00,
2013-04-09 02:50:00,61.6,48.9,30.09,ESE,113,1.1,2.5,63,0.00,,,0.00,WUHU216HW,2013-04-09 06:50:00,
2013-04-09 02:55:00,61.6,49.3,30.09,SE,135,1.1,1.8,64,0.00,,,0.00,WUHU216HW,2013-04-09 06:55:00,
2013-04-09 03:00:00,61.6,49.3,30.09,SE,135,1.1,1.6,64,0.00,,,0.00,WUHU216HW,2013-04-09 07:00:00,
2013-04-09 03:05:00,61.6,49.3,30.09,SE,135,1.8,1.8,64,0.00,,,0.00,WUHU216HW,2013-04-09 07:05:00,
2013-04-09 03:10:00,61.6,49.3,30.09,ESE,113,1.8,1.8,64,0.00,,,0.00,WUHU216HW,2013-04-09 07:10:00,
2013-04-09 03:15:00,61.6,49.3,30.09,East,90,2.0,2.5,64,0.00,,,0.00,WUHU216HW,2013-04-09 07:15:00,
2013-04-09 03:20:00,61.4,49.2,30.10,East,90,1.3,3.1,64,0.00,,,0.00,WUHU216HW,2013-04-09 07:20:00,
2013-04-09 03:25:00,61.2,49.0,30.09,ESE,113,0.7,3.1,64,0.00,,,0.00,WUHU216HW,2013-04-09 07:25:00,
2013-04-09 03:30:00,61.2,49.4,30.09,SE,135,1.1,1.8,65,0.00,,,0.00,WUHU216HW,2013-04-09 07:30:00,
2013-04-09 03:35:00,61.2,49.4,30.09,ESE,113,2.0,2.0,65,0.00,,,0.00,WUHU216HW,2013-04-09 07:35:00,
2013-04-09 03:40:00,61.2,49.4,30.09,ESE,113,2.0,2.0,65,0.00,,,0.00,WUHU216HW,2013-04-09 07:40:00,
2013-04-09 03:45:00,60.8,49.1,30.10,ESE,113,2.0,2.9,65,0.00,,,0.00,WUHU216HW,2013-04-09 07:45:00,
2013-04-09 03:50:00,60.7,48.9,30.10,East,90,1.8,2.9,65,0.00,,,0.00,WUHU216HW,2013-04-09 07:50:00,
2013-04-09 03:55:00,60.5,48.7,30.10,East,90,2.2,2.9,65,0.00,,,0.00,WUHU216HW,2013-04-09 07:55:00,
2013-04-09 04:00:00,60.3,48.5,30.10,ESE,113,2.0,2.9,65,0.00,,,0.00,WUHU216HW,2013-04-09 08:00:00,
2013-04-09 04:05:00,60.1,48.3,30.10,East,90,1.1,2.9,65,0.00,,,0.00,WUHU216HW,2013-04-09 08:05:00,
2013-04-09 04:10:00,60.1,48.3,30.10,NE,45,2.9,2.9,65,0.00,,,0.00,WUHU216HW,2013-04-09 08:10:00,
2013-04-09 04:15:00,59.9,48.2,30.10,East,90,2.0,3.1,65,0.00,,,0.00,WUHU216HW,2013-04-09 08:15:00,
2013-04-09 04:20:00,59.8,48.4,30.10,ESE,113,1.8,3.1,66,0.00,,,0.00,WUHU216HW,2013-04-09 08:20:00,
2013-04-09 04:26:00,59.8,48.4,30.11,ENE,68,1.1,2.5,66,0.00,,,0.00,WUHU216HW,2013-04-09 08:26:00,
2013-04-09 04:31:00,59.8,48.4,30.11,ENE,68,1.3,1.8,66,0.00,,,0.00,WUHU216HW,2013-04-09 08:31:00,
2013-04-09 04:36:00,59.6,48.3,30.11,East,90,1.3,2.5,66,0.00,,,0.00,WUHU216HW,2013-04-09 08:36:00,
2013-04-09 04:41:00,59.8,48.4,30.11,ENE,68,0.0,2.5,66,0.00,,,0.00,WUHU216HW,2013-04-09 08:41:00,
2013-04-09 04:46:00,59.8,48.4,30.11,East,90,0.0,1.3,66,0.00,,,0.00,WUHU216HW,2013-04-09 08:46:00,
2013-04-09 04:51:00,59.8,48.4,30.11,ESE,113,1.8,1.8,66,0.00,,,0.00,WUHU216HW,2013-04-09 08:51:00,
2013-04-09 04:56:00,59.8,48.4,30.11,East,90,1.1,2.2,66,0.00,,,0.00,WUHU216HW,2013-04-09 08:56:00,
2013-04-09 05:01:00,59.8,48.4,30.11,ENE,68,0.4,2.2,66,0.00,,,0.00,WUHU216HW,2013-04-09 09:01:00,
2013-04-09 05:06:00,59.8,48.4,30.11,ENE,68,0.0,1.3,66,0.00,,,0.00,WUHU216HW,2013-04-09 09:06:00,
2013-04-09 05:11:00,59.8,48.4,30.11,ENE,68,0.0,0.9,66,0.00,,,0.00,WUHU216HW,2013-04-09 09:11:00,
2013-04-09 05:16:00,59.6,48.3,30.11,ENE,68,0.9,1.1,66,0.00,,,0.00,WUHU216HW,2013-04-09 09:16:00,
2013-04-09 05:21:00,59.6,48.3,30.11,ENE,68,0.0,1.1,66,0.00,,,0.00,WUHU216HW,2013-04-09 09:21:00,
2013-04-09 05:26:00,59.6,48.3,30.11,ENE,68,0.0,0.9,66,0.00,,,0.00,WUHU216HW,2013-04-09 09:26:00,
2013-04-09 05:31:00,59.6,48.3,30.11,East,90,1.6,1.6,66,0.00,,,0.00,WUHU216HW,2013-04-09 09:31:00,
2013-04-09 05:36:00,59.6,48.6,30.11,East,90,0.4,1.6,67,0.00,,,0.00,WUHU216HW,2013-04-09 09:36:00,
2013-04-09 05:41:00,59.6,48.6,30.11,ENE,68,0.0,1.1,67,0.00,,,0.00,WUHU216HW,2013-04-09 09:41:00,
2013-04-09 05:46:00,59.4,48.4,30.11,ENE,68,0.0,0.9,67,0.00,,,0.00,WUHU216HW,2013-04-09 09:46:00,
2013-04-09 05:51:00,59.4,48.4,30.12,ENE,68,0.0,0.0,67,0.00,,,0.00,WUHU216HW,2013-04-09 09:51:00,
2013-04-09 05:56:00,58.9,47.9,30.12,ENE,68,0.0,0.0,67,0.00,,,0.00,WUHU216HW,2013-04-09 09:56:00,
2013-04-09 06:01:00,58.3,47.3,30.12,ENE,68,0.0,0.0,67,0.00,,,0.00,WUHU216HW,2013-04-09 10:01:00,
2013-04-09 06:06:00,58.1,47.6,30.13,ENE,68,0.0,0.0,68,0.00,,,0.00,WUHU216HW,2013-04-09 10:06:00,
2013-04-09 06:11:00,58.0,47.4,30.13,ENE,68,0.0,0.4,68,0.00,,,0.00,WUHU216HW,2013-04-09 10:11:00,
2013-04-09 06:16:00,58.0,47.9,30.13,ENE,68,0.0,0.4,69,0.00,,,0.00,WUHU216HW,2013-04-09 10:16:00,
2013-04-09 06:21:00,58.0,47.9,30.13,ENE,68,0.0,0.2,69,0.00,,,0.00,WUHU216HW,2013-04-09 10:21:00,
2013-04-09 06:26:00,58.0,47.9,30.13,ENE,68,0.0,0.0,69,0.00,,,0.00,WUHU216HW,2013-04-09 10:26:00,
2013-04-09 06:31:00,58.0,47.9,30.13,ENE,68,0.0,0.0,69,0.00,,,0.00,WUHU216HW,2013-04-09 10:31:00,
2013-04-09 06:36:00,58.0,47.9,30.13,East,90,1.1,1.3,69,0.00,,,0.00,WUHU216HW,2013-04-09 10:36:00,
2013-04-09 06:42:00,57.6,47.5,30.13,East,90,1.1,1.8,69,0.00,,,0.00,WUHU216HW,2013-04-09 10:42:00,
2013-04-09 06:47:00,57.6,47.5,30.13,ESE,113,0.4,1.8,69,0.00,,,0.00,WUHU216HW,2013-04-09 10:47:00,
2013-04-09 06:52:00,57.6,47.5,30.13,ESE,113,0.0,0.9,69,0.00,,,0.00,WUHU216HW,2013-04-09 10:52:00,
2013-04-09 06:57:00,57.6,47.9,30.13,ESE,113,0.0,0.9,70,0.00,,,0.00,WUHU216HW,2013-04-09 10:57:00,
2013-04-09 07:02:00,57.6,47.9,30.13,ESE,113,0.0,0.0,70,0.00,,,0.00,WUHU216HW,2013-04-09 11:02:00,
2013-04-09 07:07:00,57.6,47.9,30.14,ESE,113,0.0,0.0,70,0.00,,,0.00,WUHU216HW,2013-04-09 11:07:00,
2013-04-09 07:12:00,57.6,47.9,30.14,East,90,0.0,0.0,70,0.00,,,0.00,WUHU216HW,2013-04-09 11:12:00,
2013-04-09 07:17:00,57.6,47.9,30.14,ENE,68,0.0,0.0,70,0.00,,,0.00,WUHU216HW,2013-04-09 11:17:00,
2013-04-09 07:22:00,57.6,47.9,30.15,ENE,68,0.0,0.0,70,0.00,,,0.00,WUHU216HW,2013-04-09 11:22:00,
2013-04-09 07:27:00,57.6,47.9,30.15,ENE,68,0.0,0.0,70,0.00,,,0.00,WUHU216HW,2013-04-09 11:27:00,
2013-04-09 07:32:00,57.6,47.9,30.15,ENE,68,0.0,0.0,70,0.00,,,0.00,WUHU216HW,2013-04-09 11:32:00,
2013-04-09 07:37:00,57.6,47.9,30.15,NNE,23,0.4,1.3,70,0.00,,,0.00,WUHU216HW,2013-04-09 11:37:00,
2013-04-09 07:42:00,57.8,48.1,30.16,NNE,23,0.4,1.3,70,0.00,,,0.00,WUHU216HW,2013-04-09 11:42:00,
2013-04-09 07:47:00,57.8,48.1,30.16,SE,135,0.7,1.1,70,0.00,,,0.00,WUHU216HW,2013-04-09 11:47:00,
2013-04-09 07:52:00,58.0,48.2,30.16,ESE,113,0.2,1.1,70,0.00,,,0.00,WUHU216HW,2013-04-09 11:52:00,
2013-04-09 07:57:00,58.0,48.2,30.16,ESE,113,0.0,0.9,70,0.00,,,0.00,WUHU216HW,2013-04-09 11:57:00,
2013-04-09 08:02:00,58.0,48.2,30.16,SE,135,0.0,0.9,70,0.00,,,0.00,WUHU216HW,2013-04-09 12:02:00,
2013-04-09 08:07:00,57.8,48.4,30.16,SE,135,1.1,1.6,71,0.00,,,0.00,WUHU216HW,2013-04-09 12:07:00,
2013-04-09 08:12:00,57.8,48.4,30.16,SE,135,2.0,2.7,71,0.00,,,0.00,WUHU216HW,2013-04-09 12:12:00,
2013-04-09 08:17:00,58.1,49.1,30.16,SE,135,2.5,2.7,72,0.00,,,0.00,WUHU216HW,2013-04-09 12:17:00,
2013-04-09 08:22:00,58.5,49.5,30.16,SE,135,2.7,2.7,72,0.00,,,0.00,WUHU216HW,2013-04-09 12:22:00,
2013-04-09 08:28:00,58.9,49.5,30.17,SE,135,2.5,2.9,71,0.00,,,0.00,WUHU216HW,2013-04-09 12:28:00,
2013-04-09 08:33:00,59.0,49.7,30.16,SE,135,2.0,2.9,71,0.00,,,0.00,WUHU216HW,2013-04-09 12:33:00,
2013-04-09 08:38:00,59.4,50.0,30.17,ESE,113,2.5,2.9,71,0.00,,,0.00,WUHU216HW,2013-04-09 12:38:00,
2013-04-09 08:43:00,59.6,50.2,30.17,ESE,113,2.5,3.1,71,0.00,,,0.00,WUHU216HW,2013-04-09 12:43:00,
2013-04-09 08:48:00,59.8,50.4,30.17,SE,135,1.3,3.1,71,0.00,,,0.00,WUHU216HW,2013-04-09 12:48:00,
2013-04-09 08:53:00,60.1,50.4,30.17,SE,135,1.8,2.7,70,0.00,,,0.00,WUHU216HW,2013-04-09 12:53:00,
2013-04-09 08:58:00,60.3,50.6,30.17,ESE,113,1.1,2.2,70,0.00,,,0.00,WUHU216HW,2013-04-09 12:58:00,
2013-04-09 09:03:00,60.3,50.6,30.18,SE,135,0.0,2.0,70,0.00,,,0.00,WUHU216HW,2013-04-09 13:03:00,
2013-04-09 09:08:00,60.7,50.9,30.18,SE,135,0.2,1.1,70,0.00,,,0.00,WUHU216HW,2013-04-09 13:08:00,
2013-04-09 09:13:00,60.8,51.1,30.18,SE,135,1.6,1.8,70,0.00,,,0.00,WUHU216HW,2013-04-09 13:13:00,
2013-04-09 09:18:00,61.4,51.2,30.18,SE,135,2.0,3.6,69,0.00,,,0.00,WUHU216HW,2013-04-09 13:18:00,
2013-04-09 09:23:00,61.7,51.5,30.18,SE,135,2.5,3.6,69,0.00,,,0.00,WUHU216HW,2013-04-09 13:23:00,
2013-04-09 09:28:00,62.3,52.0,30.18,SE,135,1.8,2.5,69,0.00,,,0.00,WUHU216HW,2013-04-09 13:28:00,
2013-04-09 09:33:00,62.5,52.2,30.18,SE,135,1.1,2.5,69,0.00,,,0.00,WUHU216HW,2013-04-09 13:33:00,
2013-04-09 09:38:00,62.6,51.9,30.18,SE,135,2.5,2.5,68,0.00,,,0.00,WUHU216HW,2013-04-09 13:38:00,
2013-04-09 09:43:00,62.8,52.1,30.18,South,180,1.1,2.7,68,0.00,,,0.00,WUHU216HW,2013-04-09 13:43:00,
2013-04-09 09:48:00,63.0,52.3,30.18,East,90,2.9,3.4,68,0.00,,,0.00,WUHU216HW,2013-04-09 13:48:00,
2013-04-09 09:54:00,63.4,52.7,30.18,SE,135,0.4,3.4,68,0.00,,,0.00,WUHU216HW,2013-04-09 13:54:00,
2013-04-09 09:59:00,63.5,52.8,30.18,SSE,158,3.1,4.0,68,0.00,,,0.00,WUHU216HW,2013-04-09 13:59:00,
2013-04-09 10:04:00,63.7,52.6,30.18,East,90,3.4,4.0,67,0.00,,,0.00,WUHU216HW,2013-04-09 14:04:00,
2013-04-09 10:09:00,64.3,53.1,30.18,SE,135,2.5,5.1,67,0.00,,,0.00,WUHU216HW,2013-04-09 14:09:00,
2013-04-09 10:14:00,64.6,53.4,30.18,East,90,0.9,5.1,67,0.00,,,0.00,WUHU216HW,2013-04-09 14:14:00,
2013-04-09 10:19:00,65.2,53.5,30.18,NNE,23,0.4,3.8,66,0.00,,,0.00,WUHU216HW,2013-04-09 14:19:00,
2013-04-09 10:24:00,65.7,54.0,30.18,SE,135,0.4,3.1,66,0.00,,,0.00,WUHU216HW,2013-04-09 14:24:00,
2013-04-09 10:29:00,66.1,53.9,30.19,ESE,113,2.5,4.0,65,0.00,,,0.00,WUHU216HW,2013-04-09 14:29:00,
2013-04-09 10:34:00,66.4,54.3,30.18,East,90,1.6,4.0,65,0.00,,,0.00,WUHU216HW,2013-04-09 14:34:00,
2013-04-09 10:39:00,66.8,54.6,30.18,NNW,338,0.0,3.4,65,0.00,,,0.00,WUHU216HW,2013-04-09 14:39:00,
2013-04-09 10:44:00,67.3,54.7,30.19,NNE,23,1.1,1.8,64,0.00,,,0.00,WUHU216HW,2013-04-09 14:44:00,
2013-04-09 10:49:00,67.7,55.0,30.19,SE,135,1.3,2.5,64,0.00,,,0.00,WUHU216HW,2013-04-09 14:49:00,
2013-04-09 10:55:00,68.2,55.5,30.19,SE,135,1.8,2.5,64,0.00,,,0.00,WUHU216HW,2013-04-09 14:55:00,
2013-04-09 11:00:00,68.9,55.8,30.19,SW,225,1.1,2.5,63,0.00,,,0.00,WUHU216HW,2013-04-09 15:00:00,
2013-04-09 11:05:00,69.5,55.9,30.20,WNW,293,1.8,2.9,62,0.00,,,0.00,WUHU216HW,2013-04-09 15:05:00,
2013-04-09 11:10:00,70.2,55.3,30.20,West,270,2.0,2.9,59,0.00,,,0.00,WUHU216HW,2013-04-09 15:10:00,
2013-04-09 11:15:00,70.9,55.9,30.19,SSW,203,1.1,2.7,59,0.00,,,0.00,WUHU216HW,2013-04-09 15:15:00,
2013-04-09 11:20:00,71.5,56.4,30.20,West,270,0.9,2.7,59,0.00,,,0.00,WUHU216HW,2013-04-09 15:20:00,
2013-04-09 11:25:00,72.0,56.3,30.19,North,0,1.3,2.5,58,0.00,,,0.00,WUHU216HW,2013-04-09 15:25:00,
2013-04-09 11:30:00,72.2,56.5,30.19,NW,315,2.5,3.4,58,0.00,,,0.00,WUHU216HW,2013-04-09 15:30:00,
2013-04-09 11:35:00,72.7,56.5,30.19,NNW,338,1.8,3.6,57,0.00,,,0.00,WUHU216HW,2013-04-09 15:35:00,
2013-04-09 11:40:00,72.9,55.2,30.19,WNW,293,3.1,4.5,54,0.00,,,0.00,WUHU216HW,2013-04-09 15:40:00,
2013-04-09 11:45:00,73.1,55.8,30.19,NW,315,3.4,4.7,55,0.00,,,0.00,WUHU216HW,2013-04-09 15:45:00,
2013-04-09 11:50:00,73.4,56.2,30.19,NW,315,4.0,4.7,55,0.00,,,0.00,WUHU216HW,2013-04-09 15:50:00,
2013-04-09 11:55:00,73.3,55.5,30.19,SW,225,1.8,4.5,54,0.00,,,0.00,WUHU216HW,2013-04-09 15:55:00,
2013-04-09 12:00:00,73.3,55.5,30.19,WNW,293,3.4,4.5,54,0.00,,,0.00,WUHU216HW,2013-04-09 16:00:00,
2013-04-09 12:05:00,73.4,55.6,30.19,NW,315,1.8,4.5,54,0.00,,,0.00,WUHU216HW,2013-04-09 16:05:00,
2013-04-09 12:10:00,73.4,55.6,30.18,SW,225,2.9,3.4,54,0.00,,,0.00,WUHU216HW,2013-04-09 16:10:00,
2013-04-09 12:15:00,73.6,55.8,30.18,SSE,158,2.5,3.6,54,0.00,,,0.00,WUHU216HW,2013-04-09 16:15:00,
2013-04-09 12:20:00,74.0,56.2,30.18,SW,225,1.3,3.6,54,0.00,,,0.00,WUHU216HW,2013-04-09 16:20:00,
2013-04-09 12:25:00,74.2,56.3,30.18,West,270,0.7,3.4,54,0.00,,,0.00,WUHU216HW,2013-04-09 16:25:00,
2013-04-09 12:30:00,74.5,56.7,30.17,SE,135,1.3,4.0,54,0.00,,,0.00,WUHU216HW,2013-04-09 16:30:00,
2013-04-09 12:35:00,75.2,57.0,30.18,West,270,2.7,4.0,53,0.00,,,0.00,WUHU216HW,2013-04-09 16:35:00,
2013-04-09 12:40:00,75.6,56.8,30.17,WSW,248,2.7,3.6,52,0.00,,,0.00,WUHU216HW,2013-04-09 16:40:00,
2013-04-09 12:45:00,75.8,57.0,30.18,WSW,248,2.2,3.6,52,0.00,,,0.00,WUHU216HW,2013-04-09 16:45:00,
2013-04-09 12:50:00,76.1,57.2,30.17,WSW,248,4.0,4.7,52,0.00,,,0.00,WUHU216HW,2013-04-09 16:50:00,
2013-04-09 12:55:00,76.3,57.4,30.17,West,270,4.3,4.7,52,0.00,,,0.00,WUHU216HW,2013-04-09 16:55:00,
2013-04-09 13:00:00,76.7,56.7,30.17,SW,225,4.7,4.7,50,0.00,,,0.00,WUHU216HW,2013-04-09 17:00:00,
2013-04-09 13:05:00,77.0,57.1,30.17,West,270,4.3,5.6,50,0.00,,,0.00,WUHU216HW,2013-04-09 17:05:00,
2013-04-09 13:10:00,77.0,55.8,30.17,West,270,4.3,6.5,48,0.00,,,0.00,WUHU216HW,2013-04-09 17:10:00,
2013-04-09 13:15:00,76.9,56.9,30.17,NW,315,4.0,6.5,50,0.00,,,0.00,WUHU216HW,2013-04-09 17:15:00,
2013-04-09 13:20:00,77.4,56.8,30.17,NW,315,2.0,4.3,49,0.00,,,0.00,WUHU216HW,2013-04-09 17:20:00,
2013-04-09 13:25:00,77.2,56.6,30.17,NNW,338,0.2,6.3,49,0.00,,,0.00,WUHU216HW,2013-04-09 17:25:00,
2013-04-09 13:30:00,77.0,57.1,30.16,SW,225,2.5,6.3,50,0.00,,,0.00,WUHU216HW,2013-04-09 17:30:00,
2013-04-09 13:35:00,77.2,57.3,30.16,NNW,338,2.9,4.7,50,0.00,,,0.00,WUHU216HW,2013-04-09 17:35:00,
2013-04-09 13:40:00,77.0,56.4,30.16,West,270,4.3,4.7,49,0.00,,,0.00,WUHU216HW,2013-04-09 17:40:00,
2013-04-09 13:45:00,77.2,57.3,30.16,SW,225,2.9,4.7,50,0.00,,,0.00,WUHU216HW,2013-04-09 17:45:00,
2013-04-09 13:50:00,77.6,57.5,30.16,WNW,293,1.6,4.7,50,0.00,,,0.00,WUHU216HW,2013-04-09 17:50:00,
2013-04-09 13:55:00,78.3,57.0,30.16,WNW,293,2.9,5.6,48,0.00,,,0.00,WUHU216HW,2013-04-09 17:55:00,
2013-04-09 14:00:00,78.5,57.8,30.16,WNW,293,2.0,5.6,49,0.00,,,0.00,WUHU216HW,2013-04-09 18:00:00,
2013-04-09 14:05:00,78.7,57.3,30.16,WSW,248,2.2,5.4,48,0.00,,,0.00,WUHU216HW,2013-04-09 18:05:00,
2013-04-09 14:10:00,79.2,57.8,30.15,NNW,338,1.6,4.3,48,0.00,,,0.00,WUHU216HW,2013-04-09 18:10:00,
2013-04-09 14:15:00,79.2,57.8,30.15,WNW,293,4.0,4.3,48,0.00,,,0.00,WUHU216HW,2013-04-09 18:15:00,
2013-04-09 14:20:00,79.4,58.6,30.15,WSW,248,2.2,5.1,49,0.00,,,0.00,WUHU216HW,2013-04-09 18:20:00,
2013-04-09 14:25:00,79.6,57.5,30.15,West,270,5.1,5.8,47,0.00,,,0.00,WUHU216HW,2013-04-09 18:25:00,
2013-04-09 14:30:00,79.2,57.8,30.14,NW,315,4.7,6.0,48,0.00,,,0.00,WUHU216HW,2013-04-09 18:30:00,
2013-04-09 14:35:00,79.6,58.7,30.14,SSW,203,2.2,6.0,49,0.00,,,0.00,WUHU216HW,2013-04-09 18:35:00,
2013-04-09 14:40:00,79.9,58.4,30.13,NNW,338,4.7,5.4,48,0.00,,,0.00,WUHU216HW,2013-04-09 18:40:00,
2013-04-09 14:45:00,79.9,58.4,30.13,WSW,248,4.5,5.1,48,0.00,,,0.00,WUHU216HW,2013-04-09 18:45:00,
2013-04-09 14:50:00,80.1,57.3,30.14,NW,315,2.5,5.1,46,0.00,,,0.00,WUHU216HW,2013-04-09 18:50:00,
2013-04-09 14:55:00,80.5,59.0,30.13,NNW,338,0.0,5.1,48,0.00,,,0.00,WUHU216HW,2013-04-09 18:55:00,
2013-04-09 15:00:00,80.8,58.1,30.13,NW,315,3.4,4.9,46,0.00,,,0.00,WUHU216HW,2013-04-09 19:00:00,
2013-04-09 15:05:00,81.0,58.8,30.13,WNW,293,4.0,4.9,47,0.00,,,0.00,WUHU216HW,2013-04-09 19:05:00,
2013-04-09 15:10:00,80.6,57.2,30.13,WSW,248,4.0,5.4,45,0.00,,,0.00,WUHU216HW,2013-04-09 19:10:00,
2013-04-09 15:15:00,80.6,57.2,30.12,WNW,293,2.9,5.4,45,0.00,,,0.00,WUHU216HW,2013-04-09 19:15:00,
2013-04-09 15:21:00,80.6,57.9,30.12,WSW,248,3.8,5.4,46,0.00,,,0.00,WUHU216HW,2013-04-09 19:21:00,
2013-04-09 15:26:00,81.0,58.8,30.12,NNW,338,3.6,5.4,47,0.00,,,0.00,WUHU216HW,2013-04-09 19:26:00,
2013-04-09 15:31:00,81.2,58.3,30.12,WSW,248,3.4,6.9,46,0.00,,,0.00,WUHU216HW,2013-04-09 19:31:00,
2013-04-09 15:36:00,81.4,57.9,30.11,WNW,293,4.0,6.9,45,0.00,,,0.00,WUHU216HW,2013-04-09 19:36:00,
2013-04-09 15:41:00,81.7,58.2,30.11,NNW,338,4.9,4.9,45,0.00,,,0.00,WUHU216HW,2013-04-09 19:41:00,
2013-04-09 15:46:00,81.4,58.5,30.11,WNW,293,2.5,4.9,46,0.00,,,0.00,WUHU216HW,2013-04-09 19:46:00,
2013-04-09 15:51:00,81.5,58.7,30.11,NW,315,2.5,4.9,46,0.00,,,0.00,WUHU216HW,2013-04-09 19:51:00,
2013-04-09 15:56:00,81.5,57.4,30.10,NNW,338,2.9,5.4,44,0.00,,,0.00,WUHU216HW,2013-04-09 19:56:00,
2013-04-09 16:00:00,81.4,57.2,30.10,WSW,248,4.7,5.4,44,0.00,,,0.00,WUHU216HW,2013-04-09 20:00:00,
2013-04-09 16:06:00,81.4,57.2,30.10,NW,315,4.5,5.1,44,0.00,,,0.00,WUHU216HW,2013-04-09 20:06:00,
2013-04-09 16:11:00,81.0,57.0,30.10,West,270,3.4,6.0,44,0.00,,,0.00,WUHU216HW,2013-04-09 20:11:00,
2013-04-09 16:16:00,80.6,56.6,30.10,West,270,3.4,7.6,44,0.00,,,0.00,WUHU216HW,2013-04-09 20:16:00,
2013-04-09 16:21:00,80.5,57.1,30.10,NNW,338,2.7,7.6,45,0.00,,,0.00,WUHU216HW,2013-04-09 20:21:00,
2013-04-09 16:26:00,80.8,58.1,30.10,NW,315,3.8,6.5,46,0.00,,,0.00,WUHU216HW,2013-04-09 20:26:00,
2013-04-09 16:31:00,80.6,57.9,30.09,NW,315,6.7,6.7,46,0.00,,,0.00,WUHU216HW,2013-04-09 20:31:00,
2013-04-09 16:36:00,81.0,57.6,30.09,SW,225,2.9,6.7,45,0.00,,,0.00,WUHU216HW,2013-04-09 20:36:00,
2013-04-09 16:41:00,81.4,57.2,30.09,NW,315,4.5,5.1,44,0.00,,,0.00,WUHU216HW,2013-04-09 20:41:00,
2013-04-09 16:46:00,81.7,57.6,30.09,West,270,2.5,5.4,44,0.00,,,0.00,WUHU216HW,2013-04-09 20:46:00,
2013-04-09 16:51:00,81.7,57.0,30.09,WNW,293,4.3,6.3,43,0.00,,,0.00,WUHU216HW,2013-04-09 20:51:00,
2013-04-09 16:56:00,81.5,57.4,30.09,NW,315,4.0,6.3,44,0.00,,,0.00,WUHU216HW,2013-04-09 20:56:00,
2013-04-09 17:01:00,82.1,58.0,30.09,WNW,293,4.5,4.5,44,0.00,,,0.00,WUHU216HW,2013-04-09 21:01:00,
2013-04-09 17:06:00,82.3,58.7,30.09,WNW,293,3.6,4.5,45,0.00,,,0.00,WUHU216HW,2013-04-09 21:06:00,
2013-04-09 17:11:00,82.1,58.0,30.09,SW,225,2.9,4.5,44,0.00,,,0.00,WUHU216HW,2013-04-09 21:11:00,
2013-04-09 17:16:00,81.7,57.0,30.08,West,270,2.5,3.8,43,0.00,,,0.00,WUHU216HW,2013-04-09 21:16:00,
2013-04-09 17:21:00,81.5,57.4,30.08,WSW,248,2.5,4.5,44,0.00,,,0.00,WUHU216HW,2013-04-09 21:21:00,
2013-04-09 17:26:00,81.7,57.6,30.08,SW,225,2.2,4.5,44,0.00,,,0.00,WUHU216HW,2013-04-09 21:26:00,
2013-04-09 17:31:00,81.9,57.8,30.08,NW,315,2.7,4.3,44,0.00,,,0.00,WUHU216HW,2013-04-09 21:31:00,
2013-04-09 17:36:00,82.4,57.6,30.08,NW,315,1.6,3.8,43,0.00,,,0.00,WUHU216HW,2013-04-09 21:36:00,
2013-04-09 17:41:00,83.2,57.7,30.08,WNW,293,2.2,4.0,42,0.00,,,0.00,WUHU216HW,2013-04-09 21:41:00,
2013-04-09 17:46:00,83.3,57.9,30.08,NW,315,3.4,4.0,42,0.00,,,0.00,WUHU216HW,2013-04-09 21:46:00,
2013-04-09 17:51:00,83.2,57.7,30.08,NNW,338,1.3,4.0,42,0.00,,,0.00,WUHU216HW,2013-04-09 21:51:00,
2013-04-09 17:56:00,82.4,57.1,30.08,NW,315,1.8,3.6,42,0.00,,,0.00,WUHU216HW,2013-04-09 21:56:00,
2013-04-09 18:01:00,81.7,57.0,30.08,WNW,293,1.8,3.1,43,0.00,,,0.00,WUHU216HW,2013-04-09 22:01:00,
2013-04-09 18:06:00,80.6,56.6,30.08,WSW,248,1.3,3.1,44,0.00,,,0.00,WUHU216HW,2013-04-09 22:06:00,
2013-04-09 18:11:00,79.9,56.0,30.08,West,270,2.0,2.7,44,0.00,,,0.00,WUHU216HW,2013-04-09 22:11:00,
2013-04-09 18:16:00,79.6,56.3,30.08,WNW,293,3.6,3.6,45,0.00,,,0.00,WUHU216HW,2013-04-09 22:16:00,
2013-04-09 18:21:00,79.4,56.1,30.08,NW,315,1.8,3.6,45,0.00,,,0.00,WUHU216HW,2013-04-09 22:21:00,
2013-04-09 18:27:00,79.4,56.7,30.08,West,270,1.6,3.6,46,0.00,,,0.00,WUHU216HW,2013-04-09 22:27:00,
2013-04-09 18:32:00,79.4,56.7,30.08,WNW,293,2.5,3.8,46,0.00,,,0.00,WUHU216HW,2013-04-09 22:32:00,
2013-04-09 18:37:00,79.0,56.4,30.08,NW,315,2.5,3.8,46,0.00,,,0.00,WUHU216HW,2013-04-09 22:37:00,
2013-04-09 18:42:00,79.0,56.4,30.08,NNW,338,2.7,2.9,46,0.00,,,0.00,WUHU216HW,2013-04-09 22:42:00,
2013-04-09 18:47:00,78.7,56.1,30.08,WNW,293,2.7,4.0,46,0.00,,,0.00,WUHU216HW,2013-04-09 22:47:00,
2013-04-09 18:52:00,78.3,56.3,30.07,WNW,293,1.8,4.0,47,0.00,,,0.00,WUHU216HW,2013-04-09 22:52:00,
2013-04-09 18:57:00,78.1,56.2,30.07,NW,315,2.5,2.7,47,0.00,,,0.00,WUHU216HW,2013-04-09 22:57:00,
2013-04-09 19:02:00,77.8,55.9,30.07,NW,315,2.5,3.1,47,0.00,,,0.00,WUHU216HW,2013-04-09 23:02:00,
2013-04-09 19:07:00,77.4,56.2,30.08,NW,315,2.7,3.1,48,0.00,,,0.00,WUHU216HW,2013-04-09 23:07:00,
2013-04-09 19:12:00,77.0,55.8,30.07,WNW,293,2.0,3.4,48,0.00,,,0.00,WUHU216HW,2013-04-09 23:12:00,
2013-04-09 19:17:00,76.9,55.7,30.07,WNW,293,1.8,3.4,48,0.00,,,0.00,WUHU216HW,2013-04-09 23:17:00,
2013-04-09 19:22:00,76.7,56.2,30.07,West,270,1.8,2.0,49,0.00,,,0.00,WUHU216HW,2013-04-09 23:22:00,
2013-04-09 19:27:00,76.5,56.0,30.07,West,270,1.6,2.5,49,0.00,,,0.00,WUHU216HW,2013-04-09 23:27:00,
2013-04-09 19:32:00,76.3,55.8,30.07,West,270,1.1,2.5,49,0.00,,,0.00,WUHU216HW,2013-04-09 23:32:00,
2013-04-09 19:37:00,76.1,55.6,30.07,WNW,293,2.2,2.2,49,0.00,,,0.00,WUHU216HW,2013-04-09 23:37:00,
2013-04-09 19:42:00,76.1,56.3,30.07,WNW,293,1.8,2.5,50,0.00,,,0.00,WUHU216HW,2013-04-09 23:42:00,
2013-04-09 19:47:00,76.0,56.1,30.07,WNW,293,1.3,2.5,50,0.00,,,0.00,WUHU216HW,2013-04-09 23:47:00,
2013-04-09 19:52:00,75.6,55.8,30.06,North,0,0.0,2.2,50,0.00,,,0.00,WUHU216HW,2013-04-09 23:52:00,
2013-04-09 19:57:00,75.6,55.8,30.06,East,90,0.0,1.3,50,0.00,,,0.00,WUHU216HW,2013-04-09 23:57:00,
2013-04-09 20:02:00,75.4,55.6,30.06,SE,135,0.0,1.1,50,0.00,,,0.00,WUHU216HW,2013-04-10 00:02:00,
2013-04-09 20:07:00,75.2,55.4,30.05,SSW,203,0.0,1.1,50,0.00,,,0.00,WUHU216HW,2013-04-10 00:07:00,
2013-04-09 20:12:00,75.1,55.8,30.05,SE,135,1.1,1.3,51,0.00,,,0.00,WUHU216HW,2013-04-10 00:12:00,
2013-04-09 20:17:00,74.9,55.6,30.06,SE,135,0.0,1.3,51,0.00,,,0.00,WUHU216HW,2013-04-10 00:17:00,
2013-04-09 20:22:00,74.5,55.3,30.05,ESE,113,2.5,2.5,51,0.00,,,0.00,WUHU216HW,2013-04-10 00:22:00,
2013-04-09 20:27:00,74.2,55.4,30.05,ESE,113,1.3,2.5,52,0.00,,,0.00,WUHU216HW,2013-04-10 00:27:00,
2013-04-09 20:32:00,73.8,55.0,30.05,SE,135,1.1,2.5,52,0.00,,,0.00,WUHU216HW,2013-04-10 00:32:00,
2013-04-09 20:37:00,73.6,55.4,30.05,SSE,158,0.4,1.8,53,0.00,,,0.00,WUHU216HW,2013-04-10 00:37:00,
2013-04-09 20:42:00,73.4,55.2,30.05,SSE,158,0.0,1.1,53,0.00,,,0.00,WUHU216HW,2013-04-10 00:42:00,
2013-04-09 20:47:00,73.3,55.0,30.05,SSE,158,0.0,1.1,53,0.00,,,0.00,WUHU216HW,2013-04-10 00:47:00,
2013-04-09 20:52:00,73.1,54.8,30.05,SSE,158,0.0,0.0,53,0.00,,,0.00,WUHU216HW,2013-04-10 00:52:00,
2013-04-09 20:57:00,72.9,54.6,30.05,East,90,0.0,0.2,53,0.00,,,0.00,WUHU216HW,2013-04-10 00:57:00,
2013-04-09 21:02:00,72.7,55.0,30.05,East,90,0.0,0.2,54,0.00,,,0.00,WUHU216HW,2013-04-10 01:02:00,
2013-04-09 21:07:00,72.7,55.0,30.06,NNE,23,0.0,0.0,54,0.00,,,0.00,WUHU216HW,2013-04-10 01:07:00,
2013-04-09 21:12:00,72.5,54.8,30.06,NNE,23,0.0,0.0,54,0.00,,,0.00,WUHU216HW,2013-04-10 01:12:00,
2013-04-09 21:17:00,72.4,54.7,30.06,NNE,23,0.0,0.0,54,0.00,,,0.00,WUHU216HW,2013-04-10 01:17:00,
2013-04-09 21:22:00,72.2,54.6,30.06,NNE,23,0.0,0.0,54,0.00,,,0.00,WUHU216HW,2013-04-10 01:22:00,
2013-04-09 21:28:00,72.0,54.4,30.06,NNW,338,0.7,1.3,54,0.00,,,0.00,WUHU216HW,2013-04-10 01:28:00,
2013-04-09 21:33:00,71.8,54.7,30.06,WNW,293,0.9,1.6,55,0.00,,,0.00,WUHU216HW,2013-04-10 01:33:00,
2013-04-09 21:38:00,71.8,54.7,30.06,WNW,293,2.2,2.9,55,0.00,,,0.00,WUHU216HW,2013-04-10 01:38:00,
2013-04-09 21:43:00,71.6,54.5,30.06,WNW,293,1.8,2.9,55,0.00,,,0.00,WUHU216HW,2013-04-10 01:43:00,
2013-04-09 21:48:00,71.6,54.5,30.06,NW,315,1.1,2.5,55,0.00,,,0.00,WUHU216HW,2013-04-10 01:48:00,
2013-04-09 21:53:00,71.5,54.4,30.07,NNW,338,1.1,2.5,55,0.00,,,0.00,WUHU216HW,2013-04-10 01:53:00,
2013-04-09 21:58:00,71.3,54.7,30.07,NW,315,1.6,1.8,56,0.00,,,0.00,WUHU216HW,2013-04-10 01:58:00,
2013-04-09 22:03:00,71.3,54.7,30.07,NW,315,0.7,1.6,56,0.00,,,0.00,WUHU216HW,2013-04-10 02:03:00,
2013-04-09 22:08:00,71.3,54.7,30.07,NW,315,0.0,1.3,56,0.00,,,0.00,WUHU216HW,2013-04-10 02:08:00,
2013-04-09 22:13:00,71.1,54.5,30.07,WNW,293,1.3,1.3,56,0.00,,,0.00,WUHU216HW,2013-04-10 02:13:00,
2013-04-09 22:18:00,70.9,54.4,30.08,NW,315,1.6,1.8,56,0.00,,,0.00,WUHU216HW,2013-04-10 02:18:00,
2013-04-09 22:23:00,70.9,54.4,30.08,WNW,293,1.6,2.7,56,0.00,,,0.00,WUHU216HW,2013-04-10 02:23:00,
2013-04-09 22:28:00,70.7,54.7,30.08,WNW,293,1.6,2.7,57,0.00,,,0.00,WUHU216HW,2013-04-10 02:28:00,
2013-04-09 22:33:00,70.6,54.5,30.08,NW,315,1.8,2.5,57,0.00,,,0.00,WUHU216HW,2013-04-10 02:33:00,
2013-04-09 22:38:00,70.6,54.1,30.09,NW,315,1.3,2.5,56,0.00,,,0.00,WUHU216HW,2013-04-10 02:38:00,
2013-04-09 22:43:00,70.4,53.9,30.09,WNW,293,0.0,1.8,56,0.00,,,0.00,WUHU216HW,2013-04-10 02:43:00,
2013-04-09 22:48:00,70.2,54.3,30.09,WSW,248,0.4,1.1,57,0.00,,,0.00,WUHU216HW,2013-04-10 02:48:00,
2013-04-09 22:53:00,70.0,54.1,30.09,West,270,1.1,1.1,57,0.00,,,0.00,WUHU216HW,2013-04-10 02:53:00,
2013-04-09 22:58:00,69.8,53.9,30.09,West,270,0.0,1.1,57,0.00,,,0.00,WUHU216HW,2013-04-10 02:58:00,
2013-04-09 23:03:00,69.7,53.7,30.09,SW,225,0.7,1.6,57,0.00,,,0.00,WUHU216HW,2013-04-10 03:03:00,
2013-04-09 23:08:00,69.7,53.7,30.09,SW,225,0.0,1.6,57,0.00,,,0.00,WUHU216HW,2013-04-10 03:08:00,
2013-04-09 23:13:00,69.7,53.7,30.09,West,270,1.6,2.0,57,0.00,,,0.00,WUHU216HW,2013-04-10 03:13:00,
2013-04-09 23:18:00,69.5,54.1,30.09,West,270,1.3,2.0,58,0.00,,,0.00,WUHU216HW,2013-04-10 03:18:00,
2013-04-09 23:23:00,69.5,54.1,30.09,West,270,1.1,1.6,58,0.00,,,0.00,WUHU216HW,2013-04-10 03:23:00,
2013-04-09 23:28:00,69.3,53.9,30.09,West,270,0.7,1.8,58,0.00,,,0.00,WUHU216HW,2013-04-10 03:28:00,
2013-04-09 23:33:00,69.1,53.7,30.08,WNW,293,1.6,1.8,58,0.00,,,0.00,WUHU216HW,2013-04-10 03:33:00,
2013-04-09 23:38:00,68.9,53.6,30.08,NW,315,1.3,1.8,58,0.00,,,0.00,WUHU216HW,2013-04-10 03:38:00,
2013-04-09 23:43:00,68.8,53.4,30.08,NW,315,1.8,2.2,58,0.00,,,0.00,WUHU216HW,2013-04-10 03:43:00,
2013-04-09 23:48:00,68.6,53.7,30.08,WNW,293,2.5,3.4,59,0.00,,,0.00,WUHU216HW,2013-04-10 03:48:00,
2013-04-09 23:53:00,68.4,53.6,30.08,NW,315,2.9,3.4,59,0.00,,,0.00,WUHU216HW,2013-04-10 03:53:00,
2013-04-09 23:58:00,68.4,53.6,30.08,NW,315,2.7,3.4,59,0.00,,,0.00,WUHU216HW,2013-04-10 03:58:00,